Welkom op de website van Weerstation Hoek van Holland.

Onweer radar Meer informatie blitzortung!


Regen radar Meer informatie rain snow radar



METAR rapporten vliegvelden

   
EHRD - Rotterdam International Airport, NL
Afstand tot: Oost 31 km
Gewijzigd: 30-05-2020 06:25
Helder  
Helder  
   Wind: NNO 5.6 km/h
Wind: NNO 5.6 km/h
Temperatuur: 11°C
Dauwpunt: 7°C
Vochtigheid: 77%
Barometer: 1024 hPa
Bewolking: Clear
Zicht: meer dan 10 km
Bewolking: Helder ft
EHRD 300425Z AUTO 03003KT 9999 NCD 11/07 Q1024 NOSIG
EHAM - Amsterdam Schiphol, NL
Afstand tot: Noord 17 km
Gewijzigd: 30-05-2020 06:55
Helder  
Helder  
   Wind: ONO 11.1 km/h
Wind: ONO 11.1 km/h
Temperatuur: 13°C
Dauwpunt: 8°C
Vochtigheid: 72%
Barometer: 1025 hPa
Zicht: meer dan 10 km
Bewolking: Helder ft
EHAM 300455Z 07006KT 040V100 CAVOK 13/08 Q1025 NOSIG
EBAW - Antwerpen/Deurne, B
Afstand tot: Zuid 138 km
Gewijzigd: 30-05-2020 06:50
Helder  
Helder  
   Wind: Oosten 11.1 km/h
Wind: Oosten 11.1 km/h
Temperatuur: 13°C
Dauwpunt: 5°C
Vochtigheid: 59%
Barometer: 1024 hPa
Zicht: meer dan 10 km
Bewolking: Helder ft
EBAW 300450Z AUTO 08006KT CAVOK 13/05 Q1024
EHEH - Eindhoven, NL
Afstand tot: OZO 140 km
Gewijzigd: 30-05-2020 06:55
Helder  
Helder  
   Wind: ONO 11.1 km/h
Wind: ONO 11.1 km/h
Temperatuur: 13°C
Dauwpunt: 5°C
Vochtigheid: 59%
Barometer: 1024 hPa
Bewolking: Clear
Zicht: meer dan 10 km
Bewolking: Helder ft
EHEH 300455Z AUTO 06006KT 020V080 9999 NCD 13/05 Q1024 BLU
  

Script ontwikkeld door  Saratoga-weather.org Aangepast voor de template door  Weerstation Leuven

Apparatuur in gebruik:

Weerstation
Davis VP2

Weerprogramma
Meteobridge

Weercomputer
meteobridge met meteostick

Webleverancier
Strato

Davis VP2

Meteobridge

meteobridge met meteostick

Strato